KMML/MML METAR and TAF weather

Enter ICAO airport designator
Station Type Date Time Source
KMML METAR 2020/03/31 12:56 UTC NOAA

KMML 311256Z AUTO 14007KT 10SM BKN110 02/M01 A3012 RMK AO2 SLP211 T00221011 FZRANO


Station Type Date Time Source
KMML Decoded METAR 2020/03/31 12:56 UTC NOAA

Marshall, Southwest Minnesota Regional Airport - Marshall/Ryan Field, MN, United States (KMML) 44-27N 095-49W
Mar 31, 2020 - 08:56 AM EDT / 2020.03.31 1256 UTC
Wind: from the SE (140 degrees) at 8 MPH (7 KT):0
Visibility: 10 mile(s):0
Sky conditions: mostly cloudy
Temperature: 36.0 F (2.2 C)
Dew Point: 30.0 F (-1.1 C)
Relative Humidity: 78%
Pressure (altimeter): 30.12 in. Hg (1019 hPa)
ob: KMML 311256Z AUTO 14007KT 10SM BKN110 02/M01 A3012 RMK AO2 SLP211 T00221011 FZRANO
cycle: 13

Station Type Date Time Source
KMML TAF UTC NOAA

Error!

Example: see airport list